Time,TemperatureF,DewpointF,PressureIn,WindDirection,WindDirectionDegrees,WindSpeedMPH,WindSpeedGustMPH,Humidity,HourlyPrecipIn,Conditions,Clouds,dailyrainin,SoftwareType,DateUTC
2013-10-26 12:29:00,69.6,59.3,29.93,East,90,0.8,0.8,70,0.00,,,0.00,WUHU216HW,2013-10-26 10:29:00,
2013-10-26 12:34:00,69.9,59.2,29.92,ESE,113,0.6,0.8,69,0.00,,,0.00,WUHU216HW,2013-10-26 10:34:00,
2013-10-26 12:39:00,69.6,58.9,29.93,SE,135,1.3,1.3,69,0.00,,,0.00,WUHU216HW,2013-10-26 10:39:00,
2013-10-26 12:44:00,70.5,59.8,29.92,ESE,113,1.7,1.7,69,0.00,,,0.00,WUHU216HW,2013-10-26 10:44:00,
2013-10-26 12:49:00,71.2,60.1,29.92,SSE,158,3.3,3.3,68,0.00,,,0.00,WUHU216HW,2013-10-26 10:49:00,
2013-10-26 12:54:00,71.2,60.1,29.92,ESE,113,2.0,3.3,67,0.00,,,0.00,WUHU216HW,2013-10-26 10:54:00,
2013-10-26 12:59:00,71.9,60.3,29.92,ESE,113,3.1,3.1,67,0.00,,,0.00,WUHU216HW,2013-10-26 10:59:00,
2013-10-26 13:04:00,72.1,60.1,29.92,SSE,158,0.0,3.5,66,0.00,,,0.00,WUHU216HW,2013-10-26 11:04:00,
2013-10-26 13:09:00,72.5,60.4,29.93,ESE,113,0.0,3.5,66,0.00,,,0.00,WUHU216HW,2013-10-26 11:09:00,
2013-10-26 13:14:00,73.7,60.8,29.92,ESE,113,2.4,3.8,65,0.00,,,0.00,WUHU216HW,2013-10-26 11:14:00,
2013-10-26 13:19:00,74.1,61.5,29.92,ESE,113,0.0,3.8,65,0.00,,,0.00,WUHU216HW,2013-10-26 11:19:00,
2013-10-26 13:24:00,73.9,60.9,29.92,SSE,158,2.2,3.5,64,0.00,,,0.00,WUHU216HW,2013-10-26 11:24:00,
2013-10-26 13:29:00,74.4,61.0,29.91,SSE,158,0.8,3.5,63,0.00,,,0.00,WUHU216HW,2013-10-26 11:29:00,
2013-10-26 13:34:00,75.3,61.0,29.92,North,0,0.0,2.0,61,0.00,,,0.00,WUHU216HW,2013-10-26 11:34:00,
2013-10-26 13:39:00,75.3,61.0,29.92,SE,135,0.0,2.0,61,0.00,,,0.00,WUHU216HW,2013-10-26 11:39:00,
2013-10-26 13:44:00,74.8,60.5,29.92,NNE,23,0.0,1.7,61,0.00,,,0.00,WUHU216HW,2013-10-26 11:44:00,
2013-10-26 13:49:00,74.4,59.7,29.92,NW,315,2.2,2.2,60,0.00,,,0.00,WUHU216HW,2013-10-26 11:49:00,
2013-10-26 13:54:00,74.1,59.3,29.92,SSW,203,0.0,5.1,60,0.00,,,0.00,WUHU216HW,2013-10-26 11:54:00,
2013-10-26 13:59:00,74.4,58.7,29.93,WNW,293,0.6,5.1,58,0.00,,,0.00,WUHU216HW,2013-10-26 11:59:00,
2013-10-26 14:04:00,75.0,59.7,29.92,SE,135,0.0,2.2,59,0.00,,,0.00,WUHU216HW,2013-10-26 12:04:00,
2013-10-26 14:09:00,75.9,60.5,29.93,South,180,0.0,1.1,58,0.00,,,0.00,WUHU216HW,2013-10-26 12:09:00,
2013-10-26 14:14:00,76.1,60.2,29.93,WNW,293,2.0,2.0,58,0.00,,,0.00,WUHU216HW,2013-10-26 12:14:00,
2013-10-26 14:19:00,75.5,59.5,29.93,SSE,158,0.0,3.3,57,0.00,,,0.00,WUHU216HW,2013-10-26 12:19:00,
2013-10-26 14:24:00,75.3,59.0,29.93,South,180,0.0,3.3,57,0.00,,,0.00,WUHU216HW,2013-10-26 12:24:00,
2013-10-26 14:29:00,75.7,59.4,29.93,SSE,158,5.3,5.3,57,0.00,,,0.00,WUHU216HW,2013-10-26 12:29:00,
2013-10-26 14:34:00,75.7,59.4,29.93,West,270,2.4,5.3,57,0.00,,,0.00,WUHU216HW,2013-10-26 12:34:00,
2013-10-26 14:39:00,75.3,59.0,29.93,South,180,0.0,5.1,57,0.00,,,0.00,WUHU216HW,2013-10-26 12:39:00,
2013-10-26 14:44:00,75.9,59.0,29.93,NNW,338,0.0,5.1,56,0.00,,,0.00,WUHU216HW,2013-10-26 12:44:00,
2013-10-26 14:49:00,75.5,58.7,29.93,SW,225,1.7,5.1,56,0.00,,,0.00,WUHU216HW,2013-10-26 12:49:00,
2013-10-26 14:54:00,74.8,58.0,29.93,SSW,203,0.0,3.5,56,0.00,,,0.00,WUHU216HW,2013-10-26 12:54:00,
2013-10-26 14:59:00,75.0,58.7,29.93,North,0,0.0,3.5,57,0.00,,,0.00,WUHU216HW,2013-10-26 12:59:00,
2013-10-26 15:04:00,75.2,58.4,29.93,West,270,0.8,0.8,56,0.00,,,0.00,WUHU216HW,2013-10-26 13:04:00,
2013-10-26 15:09:00,74.8,57.5,29.93,West,270,0.0,4.2,55,0.00,,,0.00,WUHU216HW,2013-10-26 13:09:00,
2013-10-26 15:14:00,74.3,58.0,29.93,West,270,4.6,4.6,57,0.00,,,0.00,WUHU216HW,2013-10-26 13:14:00,
2013-10-26 15:19:00,74.4,58.2,29.93,SSE,158,0.0,4.6,57,0.00,,,0.00,WUHU216HW,2013-10-26 13:19:00,
2013-10-26 15:24:00,74.1,57.8,29.93,SSE,158,0.0,6.0,57,0.00,,,0.00,WUHU216HW,2013-10-26 13:24:00,
2013-10-26 15:29:00,74.8,58.5,29.94,South,180,4.6,6.0,57,0.00,,,0.00,WUHU216HW,2013-10-26 13:29:00,
2013-10-26 15:34:00,74.8,58.5,29.93,SSE,158,1.1,4.6,57,0.00,,,0.00,WUHU216HW,2013-10-26 13:34:00,
2013-10-26 15:39:00,74.4,58.3,29.93,SW,225,0.0,4.0,57,0.00,,,0.00,WUHU216HW,2013-10-26 13:39:00,
2013-10-26 15:44:00,73.2,56.9,29.93,SSW,203,0.0,4.0,57,0.00,,,0.00,WUHU216HW,2013-10-26 13:44:00,
2013-10-26 15:49:00,72.1,57.0,29.94,NW,315,0.0,1.7,59,0.00,,,0.00,WUHU216HW,2013-10-26 13:49:00,
2013-10-26 15:54:00,71.2,56.6,29.94,West,270,0.0,1.7,60,0.00,,,0.00,WUHU216HW,2013-10-26 13:54:00,
2013-10-26 15:59:00,70.7,56.6,29.94,WNW,293,0.0,2.4,61,0.00,,,0.00,WUHU216HW,2013-10-26 13:59:00,
2013-10-26 16:04:00,70.1,56.7,29.93,ENE,68,0.0,2.4,62,0.00,,,0.00,WUHU216HW,2013-10-26 14:04:00,
2013-10-26 16:09:00,69.6,56.4,29.93,South,180,0.0,0.0,63,0.00,,,0.00,WUHU216HW,2013-10-26 14:09:00,
2013-10-26 16:14:00,69.0,56.3,29.93,West,270,0.0,4.0,64,0.00,,,0.00,WUHU216HW,2013-10-26 14:14:00,
2013-10-26 16:19:00,69.0,56.3,29.94,West,270,0.8,4.0,64,0.00,,,0.00,WUHU216HW,2013-10-26 14:19:00,
2013-10-26 16:24:00,68.5,56.2,29.94,North,0,0.0,2.0,65,0.00,,,0.00,WUHU216HW,2013-10-26 14:24:00,
2013-10-26 16:29:00,68.5,56.2,29.94,West,270,2.4,4.0,65,0.00,,,0.00,WUHU216HW,2013-10-26 14:29:00,
2013-10-26 16:34:00,68.3,56.5,29.94,WNW,293,0.0,4.0,66,0.00,,,0.00,WUHU216HW,2013-10-26 14:34:00,
2013-10-26 16:39:00,68.1,56.3,29.94,NW,315,0.0,2.2,66,0.00,,,0.00,WUHU216HW,2013-10-26 14:39:00,
2013-10-26 16:44:00,67.8,56.0,29.94,NNW,338,0.0,1.3,66,0.00,,,0.00,WUHU216HW,2013-10-26 14:44:00,
2013-10-26 16:49:00,67.6,56.2,29.94,NW,315,0.0,1.3,67,0.00,,,0.00,WUHU216HW,2013-10-26 14:49:00,
2013-10-26 16:54:00,66.7,55.8,29.94,North,0,0.0,0.0,68,0.00,,,0.00,WUHU216HW,2013-10-26 14:54:00,
2013-10-26 16:59:00,66.0,55.5,29.94,West,270,0.0,0.0,69,0.00,,,0.00,WUHU216HW,2013-10-26 14:59:00,
2013-10-26 17:04:00,65.4,55.4,29.93,WNW,293,0.0,0.0,70,0.00,,,0.00,WUHU216HW,2013-10-26 15:04:00,
2013-10-26 17:09:00,64.9,55.3,29.93,NW,315,0.0,0.0,71,0.00,,,0.00,WUHU216HW,2013-10-26 15:09:00,
2013-10-26 17:14:00,64.2,55.0,29.94,WNW,293,0.0,0.0,72,0.00,,,0.00,WUHU216HW,2013-10-26 15:14:00,
2013-10-26 17:19:00,63.6,54.8,29.94,NW,315,0.0,0.0,73,0.00,,,0.00,WUHU216HW,2013-10-26 15:19:00,
2013-10-26 17:24:00,63.1,54.3,29.94,West,270,0.0,0.0,73,0.00,,,0.00,WUHU216HW,2013-10-26 15:24:00,
2013-10-26 17:29:00,62.7,54.6,29.94,West,270,0.0,0.0,75,0.00,,,0.00,WUHU216HW,2013-10-26 15:29:00,
2013-10-26 17:34:00,62.4,54.3,29.94,WNW,293,0.0,0.0,75,0.00,,,0.00,WUHU216HW,2013-10-26 15:34:00,
2013-10-26 17:39:00,62.0,54.2,29.94,North,0,0.0,0.0,76,0.00,,,0.00,WUHU216HW,2013-10-26 15:39:00,
2013-10-26 17:44:00,62.2,54.5,29.94,WNW,293,0.0,1.7,76,0.00,,,0.00,WUHU216HW,2013-10-26 15:44:00,
2013-10-26 17:49:00,62.0,54.3,29.94,WSW,248,0.0,1.7,76,0.00,,,0.00,WUHU216HW,2013-10-26 15:49:00,
2013-10-26 17:54:00,61.8,54.5,29.94,WSW,248,0.0,0.0,77,0.00,,,0.00,WUHU216HW,2013-10-26 15:54:00,
2013-10-26 17:59:00,61.5,54.2,29.94,West,270,0.8,0.8,77,0.00,,,0.00,WUHU216HW,2013-10-26 15:59:00,
2013-10-26 18:05:00,61.3,54.0,29.94,West,270,0.0,2.0,77,0.00,,,0.00,WUHU216HW,2013-10-26 16:05:00,
2013-10-26 18:10:00,60.9,53.7,29.94,NW,315,0.0,2.0,77,0.00,,,0.00,WUHU216HW,2013-10-26 16:10:00,
2013-10-26 18:15:00,60.4,53.6,29.94,NW,315,0.0,0.0,78,0.00,,,0.00,WUHU216HW,2013-10-26 16:15:00,
2013-10-26 18:20:00,59.9,53.6,29.94,NNW,338,0.0,0.0,79,0.00,,,0.00,WUHU216HW,2013-10-26 16:20:00,
2013-10-26 18:25:00,59.5,53.0,29.95,NNW,338,0.0,2.0,79,0.00,,,0.00,WUHU216HW,2013-10-26 16:25:00,
2013-10-26 18:30:00,59.1,53.0,29.95,NNW,338,0.0,2.0,80,0.00,,,0.00,WUHU216HW,2013-10-26 16:30:00,
2013-10-26 18:35:00,58.8,52.7,29.96,NNW,338,1.3,2.9,80,0.00,,,0.00,WUHU216HW,2013-10-26 16:35:00,
2013-10-26 18:40:00,58.8,53.0,29.97,WSW,248,0.0,2.9,81,0.00,,,0.00,WUHU216HW,2013-10-26 16:40:00,
2013-10-26 18:45:00,58.6,52.8,29.98,WSW,248,0.0,1.1,81,0.00,,,0.00,WUHU216HW,2013-10-26 16:45:00,
2013-10-26 18:50:00,58.2,52.4,29.99,SSW,203,0.0,0.0,81,0.00,,,0.00,WUHU216HW,2013-10-26 16:50:00,
2013-10-26 18:55:00,58.2,52.4,29.99,SSW,203,0.0,0.0,81,0.00,,,0.00,WUHU216HW,2013-10-26 16:55:00,
2013-10-26 19:00:00,58.1,52.6,29.99,WNW,293,0.0,0.0,81,0.00,,,0.00,WUHU216HW,2013-10-26 17:00:00,
2013-10-26 19:05:00,57.7,52.2,29.99,WNW,293,0.0,0.0,82,0.00,,,0.00,WUHU216HW,2013-10-26 17:05:00,
2013-10-26 19:10:00,57.3,51.9,30.00,WNW,293,0.0,0.0,82,0.00,,,0.00,WUHU216HW,2013-10-26 17:10:00,
2013-10-26 19:15:00,57.0,51.5,30.00,WNW,293,0.0,2.4,82,0.00,,,0.00,WUHU216HW,2013-10-26 17:15:00,
2013-10-26 19:20:00,57.3,52.2,30.00,NNW,338,1.7,2.4,83,0.00,,,0.00,WUHU216HW,2013-10-26 17:20:00,
2013-10-26 19:25:00,57.3,52.2,30.00,NNW,338,0.0,2.0,83,0.00,,,0.00,WUHU216HW,2013-10-26 17:25:00,
2013-10-26 19:30:00,57.7,52.5,30.00,NW,315,2.4,2.4,83,0.00,,,0.00,WUHU216HW,2013-10-26 17:30:00,
2013-10-26 19:35:00,57.9,52.7,30.00,WNW,293,0.0,2.4,83,0.00,,,0.00,WUHU216HW,2013-10-26 17:35:00,
2013-10-26 19:40:00,57.5,52.4,30.00,North,0,0.0,0.0,83,0.00,,,0.00,WUHU216HW,2013-10-26 17:40:00,
2013-10-26 19:45:00,57.0,51.8,30.01,North,0,0.0,0.0,83,0.00,,,0.00,WUHU216HW,2013-10-26 17:45:00,
2013-10-26 19:50:00,56.4,51.6,30.00,WNW,293,0.0,0.0,84,0.00,,,0.00,WUHU216HW,2013-10-26 17:50:00,
2013-10-26 19:55:00,56.1,51.2,30.00,NW,315,0.0,0.0,84,0.00,,,0.00,WUHU216HW,2013-10-26 17:55:00,
2013-10-26 20:00:00,56.1,51.6,30.01,SSW,203,0.0,0.0,85,0.00,,,0.00,WUHU216HW,2013-10-26 18:00:00,
2013-10-26 20:05:00,56.1,51.6,30.01,NW,315,0.0,0.0,85,0.00,,,0.00,WUHU216HW,2013-10-26 18:05:00,
2013-10-26 20:10:00,56.1,51.6,30.01,WNW,293,0.0,0.0,85,0.00,,,0.00,WUHU216HW,2013-10-26 18:10:00,
2013-10-26 20:15:00,56.1,51.6,30.01,WNW,293,0.0,0.0,85,0.00,,,0.00,WUHU216HW,2013-10-26 18:15:00,
2013-10-26 20:20:00,55.9,51.4,30.01,NNW,338,0.0,0.0,85,0.00,,,0.00,WUHU216HW,2013-10-26 18:20:00,
2013-10-26 20:25:00,55.7,51.2,30.01,WNW,293,0.0,0.0,85,0.00,,,0.00,WUHU216HW,2013-10-26 18:25:00,
2013-10-26 20:30:00,55.5,51.4,30.01,SE,135,0.0,0.0,86,0.00,,,0.00,WUHU216HW,2013-10-26 18:30:00,
2013-10-26 20:35:00,55.5,51.4,30.01,SSE,158,0.0,0.0,86,0.00,,,0.00,WUHU216HW,2013-10-26 18:35:00,
2013-10-26 20:40:00,55.2,51.0,30.02,SSE,158,0.0,0.0,86,0.00,,,0.00,WUHU216HW,2013-10-26 18:40:00,
2013-10-26 20:45:00,55.2,51.0,30.01,NW,315,0.0,0.0,86,0.00,,,0.00,WUHU216HW,2013-10-26 18:45:00,
2013-10-26 20:50:00,55.0,50.8,30.02,WNW,293,0.0,0.0,86,0.00,,,0.00,WUHU216HW,2013-10-26 18:50:00,
2013-10-26 20:55:00,54.6,50.8,30.02,SE,135,0.0,0.0,87,0.00,,,0.00,WUHU216HW,2013-10-26 18:55:00,
2013-10-26 21:00:00,54.3,50.4,30.01,ESE,113,0.0,0.0,87,0.00,,,0.00,WUHU216HW,2013-10-26 19:00:00,
2013-10-26 21:05:00,54.1,50.3,30.01,WNW,293,0.0,0.0,87,0.00,,,0.00,WUHU216HW,2013-10-26 19:05:00,
2013-10-26 21:10:00,53.9,50.1,30.01,NNW,338,0.0,0.0,87,0.00,,,0.00,WUHU216HW,2013-10-26 19:10:00,
2013-10-26 21:15:00,53.7,49.9,30.01,NW,315,0.0,0.0,87,0.00,,,0.00,WUHU216HW,2013-10-26 19:15:00,
2013-10-26 21:20:00,53.7,49.9,30.01,SW,225,0.0,0.0,87,0.00,,,0.00,WUHU216HW,2013-10-26 19:20:00,
2013-10-26 21:25:00,53.9,50.1,30.01,West,270,0.0,0.0,87,0.00,,,0.00,WUHU216HW,2013-10-26 19:25:00,
2013-10-26 21:30:00,53.7,49.9,30.01,NW,315,0.0,0.0,87,0.00,,,0.00,WUHU216HW,2013-10-26 19:30:00,
2013-10-26 21:35:00,53.4,49.9,30.01,NW,315,0.0,0.0,88,0.00,,,0.00,WUHU216HW,2013-10-26 19:35:00,
2013-10-26 21:40:00,53.4,49.9,30.02,WNW,293,0.0,0.0,88,0.00,,,0.00,WUHU216HW,2013-10-26 19:40:00,
2013-10-26 21:45:00,53.2,49.7,30.02,South,180,0.0,0.0,88,0.00,,,0.00,WUHU216HW,2013-10-26 19:45:00,
2013-10-26 21:50:00,53.4,49.9,30.02,West,270,0.0,0.0,88,0.00,,,0.00,WUHU216HW,2013-10-26 19:50:00,
2013-10-26 21:55:00,53.4,49.9,30.02,West,270,0.0,0.0,88,0.00,,,0.00,WUHU216HW,2013-10-26 19:55:00,
2013-10-26 22:00:00,53.7,50.2,30.02,SW,225,0.0,0.0,88,0.00,,,0.00,WUHU216HW,2013-10-26 20:00:00,
2013-10-26 22:05:00,53.9,50.4,30.02,WSW,248,0.0,0.0,88,0.00,,,0.00,WUHU216HW,2013-10-26 20:05:00,
2013-10-26 22:10:00,54.1,50.6,30.02,SW,225,0.0,0.0,88,0.00,,,0.00,WUHU216HW,2013-10-26 20:10:00,
2013-10-26 22:15:00,53.9,50.2,30.02,WNW,293,0.0,0.0,88,0.00,,,0.00,WUHU216HW,2013-10-26 20:15:00,
2013-10-26 22:20:00,53.7,50.2,30.02,NW,315,0.0,0.0,88,0.00,,,0.00,WUHU216HW,2013-10-26 20:20:00,
2013-10-26 22:25:00,53.7,50.5,30.02,North,0,0.0,0.0,89,0.00,,,0.00,WUHU216HW,2013-10-26 20:25:00,
2013-10-26 22:30:00,53.7,50.5,30.02,West,270,0.0,0.0,89,0.00,,,0.00,WUHU216HW,2013-10-26 20:30:00,
2013-10-26 22:35:00,53.4,50.2,30.02,West,270,0.0,0.0,89,0.00,,,0.00,WUHU216HW,2013-10-26 20:35:00,
2013-10-26 22:40:00,53.4,50.2,30.02,WSW,248,0.0,0.0,89,0.00,,,0.00,WUHU216HW,2013-10-26 20:40:00,
2013-10-26 22:45:00,53.4,50.0,30.02,West,270,0.0,0.0,89,0.00,,,0.00,WUHU216HW,2013-10-26 20:45:00,
2013-10-26 22:50:00,53.2,50.0,30.02,West,270,0.0,0.0,89,0.00,,,0.00,WUHU216HW,2013-10-26 20:50:00,
2013-10-26 22:55:00,53.4,50.2,30.01,South,180,0.0,0.0,89,0.00,,,0.00,WUHU216HW,2013-10-26 20:55:00,
2013-10-26 23:00:00,53.4,50.2,30.01,NNW,338,0.0,0.0,89,0.00,,,0.00,WUHU216HW,2013-10-26 21:00:00,
2013-10-26 23:05:00,53.2,50.0,30.01,NW,315,0.0,0.0,89,0.00,,,0.00,WUHU216HW,2013-10-26 21:05:00,
2013-10-26 23:10:00,52.8,49.6,30.01,WNW,293,0.0,0.0,89,0.00,,,0.00,WUHU216HW,2013-10-26 21:10:00,
2013-10-26 23:15:00,52.7,49.5,30.01,South,180,0.0,0.0,89,0.00,,,0.00,WUHU216HW,2013-10-26 21:15:00,
2013-10-26 23:20:00,52.5,49.3,30.01,ESE,113,0.0,0.0,89,0.00,,,0.00,WUHU216HW,2013-10-26 21:20:00,